createdAt,value
2023-07-15T00:01:29.557Z,26.75
2023-07-15T00:03:56.947Z,29.25
2023-07-15T00:06:24.600Z,27.27
2023-07-15T00:08:52.239Z,27.13
2023-07-15T00:11:26.000Z,30.05
2023-07-15T00:13:52.511Z,35.50
2023-07-15T00:16:20.068Z,29.00
2023-07-15T00:18:46.570Z,26.92
2023-07-15T00:21:21.466Z,28.40
2023-07-15T00:23:51.091Z,34.97
2023-07-15T00:26:17.564Z,34.83
2023-07-15T00:28:44.036Z,36.45
2023-07-15T00:31:14.312Z,33.78
2023-07-15T00:33:41.401Z,277.30
2023-07-15T00:36:09.830Z,180.30
2023-07-15T00:38:36.297Z,895.42
2023-07-15T00:41:03.061Z,778.95
2023-07-15T00:43:59.370Z,723.03
2023-07-15T00:46:50.618Z,523.97
2023-07-15T00:49:21.245Z,811.03
2023-07-15T00:52:11.863Z,698.22
2023-07-15T00:54:42.855Z,812.45
2023-07-15T00:57:09.834Z,999.90
2023-07-15T00:59:39.856Z,444.02
2023-07-15T01:02:06.667Z,349.45
2023-07-15T01:04:33.127Z,360.92
2023-07-15T01:06:59.611Z,350.38
2023-07-15T01:09:26.181Z,600.20
2023-07-15T01:11:52.828Z,664.95
2023-07-15T01:14:19.302Z,652.63
2023-07-15T01:16:48.754Z,531.70
2023-07-15T01:19:19.614Z,639.22
2023-07-15T01:21:52.578Z,578.55
2023-07-15T01:24:20.108Z,822.30
2023-07-15T01:26:47.634Z,851.20
2023-07-15T01:29:14.649Z,560.42
2023-07-15T01:31:43.070Z,587.00
2023-07-15T01:34:09.679Z,571.70
2023-07-15T01:36:36.172Z,470.75
2023-07-15T01:39:03.227Z,437.65
2023-07-15T01:41:29.699Z,741.30
2023-07-15T01:43:56.132Z,729.08
2023-07-15T01:46:22.572Z,789.83
2023-07-15T01:48:49.370Z,565.63
2023-07-15T01:51:15.859Z,492.25
2023-07-15T01:53:42.308Z,459.45
2023-07-15T01:56:08.746Z,376.65
2023-07-15T01:58:35.198Z,535.97
2023-07-15T02:01:01.703Z,357.63
2023-07-15T02:03:28.385Z,426.95
2023-07-15T02:05:54.914Z,279.48
2023-07-15T02:08:23.612Z,399.08
2023-07-15T02:10:50.624Z,426.80
2023-07-15T02:13:17.176Z,663.30
2023-07-15T02:15:43.715Z,735.58
2023-07-15T02:18:10.210Z,999.90
2023-07-15T02:20:39.081Z,999.90
2023-07-15T02:23:05.599Z,420.02
2023-07-15T02:25:33.227Z,645.38
2023-07-15T02:27:59.710Z,346.13
2023-07-15T02:30:27.100Z,542.92
2023-07-15T02:32:56.033Z,560.28
2023-07-15T02:35:22.751Z,601.55
2023-07-15T02:37:50.193Z,681.83
2023-07-15T02:40:18.084Z,456.25
2023-07-15T02:42:44.529Z,601.40
2023-07-15T02:45:13.117Z,694.70
2023-07-15T02:47:42.497Z,516.70
2023-07-15T02:50:10.289Z,532.85
2023-07-15T02:52:38.270Z,369.75
2023-07-15T02:55:07.954Z,568.60
2023-07-15T02:57:34.815Z,505.88
2023-07-15T03:00:01.866Z,880.45
2023-07-15T03:02:31.257Z,464.88
2023-07-15T03:04:57.753Z,421.70
2023-07-15T03:07:24.266Z,441.60
2023-07-15T03:09:50.735Z,558.33
2023-07-15T03:12:17.194Z,544.00
2023-07-15T03:14:43.947Z,842.60
2023-07-15T03:17:11.857Z,785.05
2023-07-15T03:19:38.719Z,826.58
2023-07-15T03:22:06.110Z,913.65
2023-07-15T03:24:33.236Z,738.55
2023-07-15T03:26:59.660Z,877.15
2023-07-15T03:29:26.461Z,920.83
2023-07-15T03:31:52.908Z,821.70
2023-07-15T03:34:20.549Z,863.33
2023-07-15T03:36:47.006Z,759.13
2023-07-15T03:39:13.464Z,835.38
2023-07-15T03:41:39.951Z,819.10
2023-07-15T03:44:06.409Z,886.92
2023-07-15T03:46:33.066Z,841.00
2023-07-15T03:48:59.541Z,709.15
2023-07-15T03:51:26.043Z,834.83
2023-07-15T03:53:52.486Z,768.65
2023-07-15T03:56:18.974Z,947.80
2023-07-15T03:58:45.426Z,974.88
2023-07-15T04:01:12.204Z,945.72
2023-07-15T04:03:38.974Z,924.33
2023-07-15T04:06:05.470Z,868.72
2023-07-15T04:08:31.886Z,773.08
2023-07-15T04:10:58.380Z,27.23
2023-07-15T04:13:24.783Z,247.75
2023-07-15T04:15:51.325Z,88.57
2023-07-15T04:18:17.920Z,42.25
2023-07-15T04:20:44.467Z,579.28
2023-07-15T04:23:11.064Z,29.05
2023-07-15T04:25:37.584Z,37.80
2023-07-15T04:28:05.105Z,23.27
2023-07-15T04:30:31.646Z,25.40
2023-07-15T04:32:58.245Z,22.17
2023-07-15T04:35:24.782Z,21.60
2023-07-15T04:37:52.018Z,20.45
2023-07-15T04:40:18.550Z,20.67
2023-07-15T04:42:46.708Z,19.27
2023-07-15T04:45:13.520Z,24.70
2023-07-15T04:47:40.536Z,24.23
2023-07-15T04:50:07.240Z,25.95
2023-07-15T04:52:33.663Z,126.07
2023-07-15T04:55:00.384Z,52.40
2023-07-15T04:57:26.890Z,40.45
2023-07-15T04:59:53.716Z,43.65
2023-07-15T05:02:20.223Z,40.65
2023-07-15T05:04:46.680Z,48.05
2023-07-15T05:07:13.151Z,44.40
2023-07-15T05:09:40.325Z,41.88
2023-07-15T05:12:07.569Z,37.95
2023-07-15T05:14:35.306Z,34.42
2023-07-15T05:17:01.856Z,35.40
2023-07-15T05:19:28.333Z,31.13
2023-07-15T05:21:54.870Z,31.15
2023-07-15T05:24:21.312Z,30.75
2023-07-15T05:26:47.773Z,26.05
2023-07-15T05:29:14.257Z,28.90
2023-07-15T05:31:40.730Z,27.38
2023-07-15T05:34:07.261Z,27.17
2023-07-15T05:36:33.826Z,35.28
2023-07-15T05:39:00.284Z,25.88
2023-07-15T05:41:26.723Z,20.42
2023-07-15T05:43:53.168Z,29.80
2023-07-15T05:46:19.629Z,31.90
2023-07-15T05:48:48.320Z,31.45
2023-07-15T05:51:16.213Z,27.08
2023-07-15T05:53:44.236Z,26.75
2023-07-15T05:56:10.710Z,25.77
2023-07-15T05:58:37.199Z,25.10
2023-07-15T06:01:05.140Z,26.08
2023-07-15T06:03:31.946Z,33.13
2023-07-15T06:06:03.040Z,27.58
2023-07-15T06:08:30.058Z,40.83
2023-07-15T06:10:56.918Z,29.77
2023-07-15T06:13:23.487Z,60.33
2023-07-15T06:15:51.220Z,23.83
2023-07-15T06:18:18.339Z,31.27
2023-07-15T06:20:47.453Z,37.50
2023-07-15T06:23:14.362Z,34.08
2023-07-15T06:25:41.039Z,31.75
2023-07-15T06:28:07.525Z,39.15
2023-07-15T06:30:34.030Z,31.25
2023-07-15T06:33:00.701Z,34.13
2023-07-15T06:35:27.200Z,30.42
2023-07-15T06:37:54.770Z,37.20
2023-07-15T06:40:21.290Z,34.88
2023-07-15T06:42:47.855Z,36.70
2023-07-15T06:45:14.716Z,29.65
2023-07-15T06:47:41.392Z,30.88
2023-07-15T06:50:08.678Z,33.45
2023-07-15T06:52:35.124Z,48.58
2023-07-15T06:55:01.585Z,42.78
2023-07-15T06:57:29.454Z,35.50
2023-07-15T06:59:55.940Z,45.15
2023-07-15T07:02:22.765Z,38.25
2023-07-15T07:04:49.345Z,35.10
2023-07-15T07:07:16.015Z,70.28
2023-07-15T07:09:42.501Z,30.15
2023-07-15T07:12:08.969Z,72.55
2023-07-15T07:14:35.456Z,49.22
2023-07-15T07:17:01.918Z,43.30
2023-07-15T07:19:28.647Z,55.10
2023-07-15T07:21:55.193Z,47.10
2023-07-15T07:24:22.433Z,47.13
2023-07-15T07:26:50.141Z,55.05
2023-07-15T07:29:16.690Z,49.85
2023-07-15T07:31:43.129Z,44.83
2023-07-15T07:34:09.577Z,44.38
2023-07-15T07:36:36.016Z,37.60
2023-07-15T07:39:02.478Z,36.17
2023-07-15T07:41:28.933Z,43.08
2023-07-15T07:43:55.409Z,38.40
2023-07-15T07:46:21.916Z,38.47
2023-07-15T07:48:48.383Z,39.30
2023-07-15T07:51:15.021Z,29.63
2023-07-15T07:53:41.744Z,38.67
2023-07-15T07:56:12.202Z,40.85
2023-07-15T07:58:41.782Z,35.83
2023-07-15T08:01:08.225Z,34.83
2023-07-15T08:03:34.766Z,30.45
2023-07-15T08:06:01.398Z,30.77
2023-07-15T08:08:27.828Z,34.83
2023-07-15T08:10:54.471Z,33.35
2023-07-15T08:13:21.101Z,31.90
2023-07-15T08:15:47.627Z,25.70
2023-07-15T08:18:14.278Z,29.33
2023-07-15T08:20:43.740Z,29.25
2023-07-15T08:23:10.303Z,28.27
2023-07-15T08:25:39.001Z,29.73
2023-07-15T08:28:05.836Z,23.55
2023-07-15T08:30:32.442Z,22.77
2023-07-15T08:32:58.935Z,29.60
2023-07-15T08:35:25.441Z,30.48
2023-07-15T08:37:54.127Z,31.00
2023-07-15T08:40:22.602Z,33.28
2023-07-15T08:42:49.113Z,27.08
2023-07-15T08:45:15.604Z,36.88
2023-07-15T08:47:45.779Z,30.27
2023-07-15T08:50:13.692Z,27.35
2023-07-15T08:52:41.612Z,28.55
2023-07-15T08:55:09.572Z,31.45
2023-07-15T08:57:36.590Z,30.05
2023-07-15T09:00:10.851Z,29.13
2023-07-15T09:02:39.044Z,34.17
2023-07-15T09:05:09.985Z,24.77
2023-07-15T09:07:50.378Z,34.10
2023-07-15T09:10:16.946Z,73.60
2023-07-15T09:12:54.427Z,38.22
2023-07-15T09:15:21.413Z,117.22
2023-07-15T09:17:55.218Z,69.55
2023-07-15T09:20:24.710Z,23.10
2023-07-15T09:22:56.604Z,27.65
2023-07-15T09:25:23.762Z,31.52
2023-07-15T09:27:50.775Z,33.25
2023-07-15T09:30:18.310Z,25.85
2023-07-15T09:32:44.873Z,17.90
2023-07-15T09:35:11.554Z,15.63
2023-07-15T09:37:38.775Z,20.65
2023-07-15T09:40:09.894Z,22.83
2023-07-15T09:42:56.038Z,15.87
2023-07-15T09:45:36.161Z,24.55
2023-07-15T09:48:05.275Z,18.85
2023-07-15T09:50:34.042Z,17.92
2023-07-15T09:53:01.359Z,16.67
2023-07-15T09:55:32.773Z,16.27
2023-07-15T09:58:19.697Z,17.83
2023-07-15T10:00:48.394Z,16.90
2023-07-15T10:03:22.298Z,19.75
2023-07-15T10:05:49.042Z,22.77
2023-07-15T10:08:15.822Z,29.13
2023-07-15T10:10:42.962Z,28.25
2023-07-15T10:13:11.132Z,23.30
2023-07-15T10:15:38.810Z,23.98
2023-07-15T10:18:18.562Z,20.30
2023-07-15T10:20:55.610Z,44.50
2023-07-15T10:23:30.504Z,22.15
2023-07-15T10:26:07.646Z,21.23
2023-07-15T10:28:35.452Z,20.60
2023-07-15T10:31:16.233Z,26.00
2023-07-15T10:33:57.039Z,22.48
2023-07-15T10:36:37.024Z,21.77
2023-07-15T10:39:17.850Z,21.38
2023-07-15T10:41:53.898Z,19.05
2023-07-15T10:44:23.880Z,19.00
2023-07-15T10:47:03.632Z,22.67
2023-07-15T10:49:33.595Z,28.38
2023-07-15T10:52:00.468Z,18.70
2023-07-15T10:54:28.705Z,20.60
2023-07-15T10:56:55.785Z,19.30
2023-07-15T10:59:25.381Z,19.48
2023-07-15T11:01:51.893Z,28.10
2023-07-15T11:04:21.688Z,24.00
2023-07-15T11:06:48.312Z,23.35
2023-07-15T11:09:15.416Z,14.90
2023-07-15T11:11:41.908Z,23.15
2023-07-15T11:14:19.715Z,20.15
2023-07-15T11:16:46.441Z,23.70
2023-07-15T11:19:16.334Z,20.95
2023-07-15T11:21:46.196Z,22.02
2023-07-15T11:24:13.763Z,23.23
2023-07-15T11:26:41.302Z,22.38
2023-07-15T11:29:14.497Z,20.40
2023-07-15T11:31:42.499Z,25.05
2023-07-15T11:34:10.503Z,26.48
2023-07-15T11:36:40.430Z,20.60
2023-07-15T11:39:07.717Z,21.35
2023-07-15T11:41:34.915Z,23.67
2023-07-15T11:44:01.403Z,26.63
2023-07-15T11:46:30.088Z,20.67
2023-07-15T11:48:58.045Z,20.95
2023-07-15T11:51:24.675Z,18.60
2023-07-15T11:53:53.554Z,20.45
2023-07-15T11:56:39.082Z,29.75
2023-07-15T11:59:09.959Z,32.78
2023-07-15T12:01:40.838Z,54.80
2023-07-15T12:04:18.641Z,42.78
2023-07-15T12:06:49.400Z,39.95
2023-07-15T12:09:16.564Z,39.00
2023-07-15T12:11:43.241Z,50.13
2023-07-15T12:14:10.419Z,36.45
2023-07-15T12:16:38.293Z,52.65
2023-07-15T12:19:06.317Z,44.08
2023-07-15T12:21:32.806Z,70.68
2023-07-15T12:23:59.532Z,38.72
2023-07-15T12:26:26.329Z,62.15
2023-07-15T12:28:53.175Z,78.18
2023-07-15T12:31:19.948Z,57.08
2023-07-15T12:33:46.729Z,82.68
2023-07-15T12:36:15.537Z,128.05
2023-07-15T12:38:42.803Z,115.30
2023-07-15T12:41:09.683Z,182.30
2023-07-15T12:43:36.930Z,79.82
2023-07-15T12:46:04.095Z,98.82
2023-07-15T12:48:31.169Z,66.25
2023-07-15T12:50:58.143Z,68.50
2023-07-15T12:53:25.556Z,45.38
2023-07-15T12:55:55.066Z,43.60
2023-07-15T12:58:22.550Z,47.53
2023-07-15T13:00:49.956Z,39.97
2023-07-15T13:03:16.556Z,47.38
2023-07-15T13:05:43.132Z,41.72
2023-07-15T13:08:09.712Z,41.22
2023-07-15T13:10:36.139Z,43.40
2023-07-15T13:13:02.607Z,50.60
2023-07-15T13:15:29.164Z,35.85
2023-07-15T13:17:55.664Z,36.65
2023-07-15T13:20:22.178Z,43.55
2023-07-15T13:22:48.712Z,41.85
2023-07-15T13:25:15.203Z,39.22
2023-07-15T13:27:41.695Z,41.45
2023-07-15T13:30:08.813Z,41.13
2023-07-15T13:32:35.275Z,35.83
2023-07-15T13:35:01.850Z,41.63
2023-07-15T13:37:28.284Z,44.92
2023-07-15T13:39:54.764Z,41.83
2023-07-15T13:42:22.978Z,35.70
2023-07-15T13:44:51.367Z,41.42
2023-07-15T13:47:18.316Z,37.75
2023-07-15T13:49:45.174Z,32.67
2023-07-15T13:52:11.649Z,34.35
2023-07-15T13:54:38.224Z,38.58
2023-07-15T13:57:04.959Z,30.95
2023-07-15T13:59:31.537Z,32.53
2023-07-15T14:01:58.062Z,25.55
2023-07-15T14:04:24.511Z,37.15
2023-07-15T14:06:51.059Z,30.85
2023-07-15T14:09:17.506Z,41.58
2023-07-15T14:11:45.860Z,102.35
2023-07-15T14:14:15.142Z,77.72
2023-07-15T14:16:41.668Z,149.07
2023-07-15T14:19:08.140Z,83.10
2023-07-15T14:21:34.601Z,67.40
2023-07-15T14:24:04.799Z,137.45
2023-07-15T14:26:32.448Z,110.28
2023-07-15T14:28:58.915Z,135.18
2023-07-15T14:31:25.457Z,151.32
2023-07-15T14:33:55.133Z,146.02
2023-07-15T14:36:25.699Z,333.17
2023-07-15T14:38:52.747Z,178.43
2023-07-15T14:41:19.734Z,191.88
2023-07-15T14:43:46.353Z,246.70
2023-07-15T14:46:12.881Z,111.22
2023-07-15T14:48:40.416Z,132.50
2023-07-15T14:51:07.026Z,216.57
2023-07-15T14:53:33.463Z,159.70
2023-07-15T14:56:00.144Z,202.07
2023-07-15T14:58:26.626Z,305.80
2023-07-15T15:00:53.121Z,272.48
2023-07-15T15:03:19.749Z,347.65
2023-07-15T15:05:46.326Z,430.52
2023-07-15T15:08:13.082Z,311.38
2023-07-15T15:10:40.118Z,432.27
2023-07-15T15:13:06.693Z,309.02
2023-07-15T15:15:33.376Z,351.85
2023-07-15T15:17:59.936Z,351.50
2023-07-15T15:20:26.532Z,278.67
2023-07-15T15:22:53.109Z,445.05
2023-07-15T15:25:19.640Z,383.75
2023-07-15T15:27:46.155Z,480.17
2023-07-15T15:30:15.244Z,485.90
2023-07-15T15:32:42.301Z,526.45
2023-07-15T15:35:09.189Z,662.05
2023-07-15T15:37:35.746Z,586.08
2023-07-15T15:40:02.208Z,572.88
2023-07-15T15:42:28.661Z,643.05
2023-07-15T15:44:56.956Z,630.72
2023-07-15T15:47:23.390Z,449.75
2023-07-15T15:49:49.825Z,657.97
2023-07-15T15:52:16.369Z,590.53
2023-07-15T15:54:42.859Z,708.90
2023-07-15T15:57:09.286Z,483.88
2023-07-15T15:59:35.867Z,635.78
2023-07-15T16:02:02.336Z,794.72
2023-07-15T16:04:28.908Z,680.80
2023-07-15T16:06:55.767Z,523.63
2023-07-15T16:09:22.304Z,539.05
2023-07-15T16:11:48.756Z,733.40
2023-07-15T16:14:15.669Z,635.72
2023-07-15T16:16:42.200Z,312.58
2023-07-15T16:19:10.610Z,488.08
2023-07-15T16:21:37.503Z,351.88
2023-07-15T16:24:04.160Z,417.55
2023-07-15T16:26:30.598Z,594.67
2023-07-15T16:28:57.041Z,999.90
2023-07-15T16:31:23.535Z,850.13
2023-07-15T16:33:49.979Z,277.48
2023-07-15T16:36:16.465Z,717.13
2023-07-15T16:38:42.879Z,426.00
2023-07-15T16:41:09.356Z,591.20
2023-07-15T16:43:36.280Z,503.27
2023-07-15T16:46:03.072Z,213.18
2023-07-15T16:48:29.570Z,999.90
2023-07-15T16:50:56.023Z,999.90
2023-07-15T16:53:23.203Z,999.90
2023-07-15T16:55:49.852Z,999.90
2023-07-15T16:58:16.286Z,209.27
2023-07-15T17:00:42.778Z,999.90
2023-07-15T17:03:09.703Z,797.20
2023-07-15T17:05:36.176Z,999.90
2023-07-15T17:08:02.629Z,829.45
2023-07-15T17:10:29.062Z,849.20
2023-07-15T17:12:55.489Z,842.10
2023-07-15T17:15:21.975Z,458.38
2023-07-15T17:17:48.520Z,532.72
2023-07-15T17:20:15.036Z,497.25
2023-07-15T17:22:41.494Z,999.90
2023-07-15T17:25:08.220Z,999.90
2023-07-15T17:27:34.711Z,999.90
2023-07-15T17:30:01.398Z,999.90
2023-07-15T17:32:27.912Z,999.90
2023-07-15T17:34:54.372Z,833.75
2023-07-15T17:37:21.438Z,999.90
2023-07-15T17:39:47.900Z,253.98
2023-07-15T17:42:14.315Z,821.42
2023-07-15T17:44:40.723Z,837.63
2023-07-15T17:47:07.149Z,849.72
2023-07-15T17:49:33.560Z,637.65
2023-07-15T17:52:00.127Z,821.72
2023-07-15T17:54:27.624Z,843.35
2023-07-15T17:56:55.329Z,293.85
2023-07-15T17:59:22.120Z,999.90
2023-07-15T18:01:48.750Z,346.15
2023-07-15T18:04:15.297Z,222.70
2023-07-15T18:06:41.706Z,486.65
2023-07-15T18:09:10.219Z,476.95
2023-07-15T18:11:37.294Z,442.80
2023-07-15T18:14:04.621Z,557.50
2023-07-15T18:16:31.459Z,362.45
2023-07-15T18:18:58.006Z,590.20
2023-07-15T18:21:24.439Z,477.15
2023-07-15T18:23:52.788Z,470.50
2023-07-15T18:26:19.246Z,624.47
2023-07-15T18:28:45.759Z,610.67
2023-07-15T18:31:12.326Z,835.30
2023-07-15T18:33:38.804Z,394.85
2023-07-15T18:36:05.548Z,568.38
2023-07-15T18:38:31.959Z,451.58
2023-07-15T18:40:58.402Z,301.08
2023-07-15T18:43:24.828Z,526.90
2023-07-15T18:45:51.239Z,325.65
2023-07-15T18:48:17.675Z,312.73
2023-07-15T18:50:44.120Z,803.72
2023-07-15T18:53:10.687Z,999.90
2023-07-15T18:55:37.124Z,999.90
2023-07-15T18:58:03.616Z,822.15
2023-07-15T19:00:30.070Z,807.25
2023-07-15T19:02:56.604Z,400.50
2023-07-15T19:05:23.210Z,585.85
2023-07-15T19:07:49.655Z,651.70
2023-07-15T19:10:16.196Z,584.03
2023-07-15T19:12:42.643Z,547.45
2023-07-15T19:15:09.328Z,389.45
2023-07-15T19:17:36.156Z,298.27
2023-07-15T19:20:02.717Z,999.90
2023-07-15T19:22:29.264Z,642.47
2023-07-15T19:24:55.765Z,204.30
2023-07-15T19:27:22.268Z,835.90
2023-07-15T19:29:48.693Z,444.27
2023-07-15T19:32:15.443Z,478.50
2023-07-15T19:34:41.923Z,344.98
2023-07-15T19:37:08.396Z,838.63
2023-07-15T19:39:34.846Z,182.52
2023-07-15T19:42:01.570Z,339.20
2023-07-15T19:44:28.050Z,129.00
2023-07-15T19:46:54.528Z,131.95
2023-07-15T19:49:20.961Z,129.50
2023-07-15T19:51:47.491Z,125.40
2023-07-15T19:54:14.285Z,86.47
2023-07-15T19:56:40.990Z,71.07
2023-07-15T19:59:07.785Z,58.38
2023-07-15T20:01:34.749Z,81.20
2023-07-15T20:04:01.646Z,66.47
2023-07-15T20:06:28.176Z,81.40
2023-07-15T20:08:54.618Z,110.35
2023-07-15T20:11:21.078Z,92.72
2023-07-15T20:13:47.549Z,151.02
2023-07-15T20:16:14.330Z,137.05
2023-07-15T20:18:41.096Z,117.13
2023-07-15T20:21:07.716Z,159.10
2023-07-15T20:23:34.147Z,280.17
2023-07-15T20:26:00.609Z,410.15
2023-07-15T20:28:27.044Z,304.17
2023-07-15T20:30:58.626Z,256.05
2023-07-15T20:33:25.030Z,308.30
2023-07-15T20:35:51.502Z,222.32
2023-07-15T20:38:17.943Z,228.32
2023-07-15T20:40:55.451Z,246.27
2023-07-15T20:43:24.048Z,215.20
2023-07-15T20:45:50.524Z,176.38
2023-07-15T20:48:17.063Z,385.33
2023-07-15T20:50:43.522Z,370.13
2023-07-15T20:53:10.057Z,426.75
2023-07-15T20:55:40.518Z,678.33
2023-07-15T20:58:07.166Z,704.22
2023-07-15T21:00:33.721Z,703.55
2023-07-15T21:03:00.357Z,557.45
2023-07-15T21:05:26.821Z,290.50
2023-07-15T21:07:53.260Z,361.92
2023-07-15T21:10:19.793Z,436.13
2023-07-15T21:12:46.280Z,337.17
2023-07-15T21:15:12.745Z,431.80
2023-07-15T21:17:39.304Z,300.30
2023-07-15T21:20:06.243Z,333.45
2023-07-15T21:22:32.673Z,377.05
2023-07-15T21:24:59.119Z,676.70
2023-07-15T21:27:25.587Z,539.08
2023-07-15T21:29:52.030Z,634.65
2023-07-15T21:32:18.464Z,479.85
2023-07-15T21:34:46.625Z,539.05
2023-07-15T21:37:14.518Z,521.63
2023-07-15T21:39:41.065Z,541.40
2023-07-15T21:42:07.573Z,450.40
2023-07-15T21:44:34.021Z,429.40
2023-07-15T21:47:00.459Z,469.27
2023-07-15T21:49:26.916Z,458.45
2023-07-15T21:51:53.350Z,431.80
2023-07-15T21:54:20.311Z,327.60
2023-07-15T21:56:46.749Z,272.20
2023-07-15T21:59:13.186Z,283.92
2023-07-15T22:01:39.716Z,308.85
2023-07-15T22:04:06.219Z,209.60
2023-07-15T22:06:33.558Z,180.63
2023-07-15T22:09:00.007Z,168.05
2023-07-15T22:11:26.447Z,166.88
2023-07-15T22:13:52.870Z,134.45
2023-07-15T22:16:19.600Z,149.90
2023-07-15T22:18:46.372Z,176.05
2023-07-15T22:21:12.834Z,151.20
2023-07-15T22:23:39.302Z,211.15
2023-07-15T22:26:05.801Z,217.05
2023-07-15T22:28:32.353Z,225.75
2023-07-15T22:30:58.861Z,576.25
2023-07-15T22:33:25.359Z,295.63
2023-07-15T22:35:51.790Z,257.90
2023-07-15T22:38:18.238Z,465.58
2023-07-15T22:40:44.685Z,350.80
2023-07-15T22:43:11.127Z,336.45
2023-07-15T22:45:45.364Z,329.52
2023-07-15T22:48:18.845Z,407.35
2023-07-15T22:50:45.329Z,336.00
2023-07-15T22:53:11.822Z,312.65
2023-07-15T22:55:38.264Z,252.63
2023-07-15T22:58:04.700Z,165.60
2023-07-15T23:00:31.262Z,207.13
2023-07-15T23:02:57.770Z,114.43
2023-07-15T23:05:24.397Z,96.03
2023-07-15T23:07:50.815Z,89.15
2023-07-15T23:10:17.336Z,119.50
2023-07-15T23:12:43.832Z,117.70
2023-07-15T23:15:10.866Z,96.43
2023-07-15T23:17:37.513Z,120.53
2023-07-15T23:20:06.793Z,224.27
2023-07-15T23:22:36.437Z,161.90
2023-07-15T23:25:03.844Z,206.82
2023-07-15T23:27:30.749Z,214.02
2023-07-15T23:29:57.404Z,191.80
2023-07-15T23:32:26.180Z,156.32
2023-07-15T23:34:54.499Z,159.10
2023-07-15T23:37:21.950Z,182.75
2023-07-15T23:39:50.642Z,141.43
2023-07-15T23:42:17.150Z,127.93
2023-07-15T23:44:43.662Z,150.77
2023-07-15T23:47:10.215Z,153.80
2023-07-15T23:49:37.625Z,139.98
2023-07-15T23:52:04.259Z,235.52
2023-07-15T23:54:30.739Z,169.93
2023-07-15T23:56:57.250Z,165.80
2023-07-15T23:59:23.702Z,163.73
